Aeroporto :
LOGIN :

Iscrizione | Disclaimer

   EN    FR    IT 

 










Sommario :    VFR   VFR Marginale   IFR   IFR Intensivo   IFR Molto Intensivo
Visibilità : 
Base nubi : 
>= 8 km
>= 3000ft
5 / 8 km
1000 / 3000 ft
1500m / 5 km
500 / 1000 ft
800 / 1500m
200 / 500 ft
< 800m
< 200 ft
Simboli :   Temporali  Nebbia  Neve Forte  Precipitazioni Forti  Vento > 20 kt
SIGMETs :   Varie  Temporali  Ghiacco  Turbolenza  Onda orograficha  Ceneri Vulcaniche






- Altitudine del aeroporto : 453 ft
- Codice IATA : SBK


LFRT - St Brieuc Armor

ULTIMO METAR :
  • 162200Z AUTO VRB02KT 9999 FEW027 OVC050 13/12 Q1009

METARs OBSOLETI :
  • 162130Z AUTO VRB03KT 9999 FEW029 OVC050 13/12 Q1009
  • 162100Z AUTO VRB02KT 9999 BKN013 OVC023 14/12 Q1009
  • 162030Z AUTO VRB02KT 9999 FEW016 BKN028 OVC040 14/12 Q1009
  • 162000Z AUTO 17003KT 130V220 9999 SCT018 BKN027 BKN032 14/12 Q1008
  • 161930Z AUTO 15003KT 110V180 9999 FEW018 SCT024 BKN030 14/12 Q1008
  • 161900Z AUTO 14003KT 110V180 9999 FEW021 BKN031 OVC049 14/12 Q1008
  • 161830Z AUTO 11003KT 070V150 9999 BKN022 OVC034 15/12 Q1008
  • 161800Z AUTO 05004KT 9999 BKN017 BKN032 OVC052 15/11 Q1007
  • 161730Z AUTO 06004KT 030V090 9999 FEW025 BKN035 OVC058 15/12 Q1007

Previsioni scadute.



MetMap, La meteo Aeronautica in un colpo d'occhio ! - Copyright ORBIFLY Dicembre 2007 - Disclaimer

ORBIFLY MET'MAP TEAM :

Programmazione e sviluppo : Alexandra Zaïnal
Concezione : Baudouin d'Aumeries
Supporto tecnico e logistico : Manuel Goepfert
Aiuto : Marc-Olivier Méhu
Aiuto per la traduzione : Arnaldo La Scala




FONTI E CREDITI :

   NOAA